createdAt,value
2019-01-06T00:00:32.003Z,2.90
2019-01-06T00:03:08.985Z,3.00
2019-01-06T00:05:37.169Z,2.90
2019-01-06T00:08:05.317Z,2.90
2019-01-06T00:10:50.382Z,3.00
2019-01-06T00:13:27.668Z,3.00
2019-01-06T00:16:04.889Z,3.00
2019-01-06T00:18:36.219Z,2.90
2019-01-06T00:21:16.432Z,2.90
2019-01-06T00:23:57.154Z,2.80
2019-01-06T00:26:25.344Z,2.90
2019-01-06T00:29:08.785Z,2.80
2019-01-06T00:31:36.969Z,2.80
2019-01-06T00:34:22.020Z,2.90
2019-01-06T00:37:02.125Z,2.80
2019-01-06T00:39:39.345Z,2.80
2019-01-06T00:42:16.459Z,2.80
2019-01-06T00:44:59.702Z,2.80
2019-01-06T00:47:30.520Z,2.80
2019-01-06T00:49:58.689Z,2.80
2019-01-06T00:52:44.237Z,2.80
2019-01-06T00:55:12.408Z,2.80
2019-01-06T00:57:40.577Z,2.90
2019-01-06T01:00:11.767Z,2.90
2019-01-06T01:02:42.983Z,2.90
2019-01-06T01:05:17.297Z,2.90
2019-01-06T01:08:02.516Z,3.00
2019-01-06T01:10:30.671Z,2.90
2019-01-06T01:13:11.036Z,3.00
2019-01-06T01:15:51.780Z,3.00
2019-01-06T01:18:25.965Z,3.00
2019-01-06T01:20:57.125Z,2.90
2019-01-06T01:23:43.760Z,3.00
2019-01-06T01:26:14.690Z,2.90
2019-01-06T01:28:48.920Z,3.00
2019-01-06T01:31:33.982Z,2.90
2019-01-06T01:34:17.241Z,3.00
2019-01-06T01:36:45.418Z,3.00
2019-01-06T01:39:13.565Z,3.00
2019-01-06T01:41:47.843Z,2.80
2019-01-06T01:44:24.916Z,2.90
2019-01-06T01:46:53.101Z,2.90
2019-01-06T01:49:21.375Z,2.90
2019-01-06T01:51:52.523Z,2.80
2019-01-06T01:54:20.941Z,2.70
2019-01-06T01:56:49.124Z,2.80
2019-01-06T01:59:20.432Z,2.70
2019-01-06T02:01:48.620Z,2.70
2019-01-06T02:04:19.944Z,2.70
2019-01-06T02:06:48.113Z,2.80
2019-01-06T02:09:34.476Z,2.70
2019-01-06T02:12:05.461Z,2.70
2019-01-06T02:14:39.625Z,2.70
2019-01-06T02:17:16.848Z,2.60
2019-01-06T02:19:47.989Z,2.60
2019-01-06T02:22:19.559Z,2.70
2019-01-06T02:25:00.091Z,2.70
2019-01-06T02:27:43.400Z,2.70
2019-01-06T02:30:28.119Z,2.70
2019-01-06T02:32:59.020Z,2.80
2019-01-06T02:35:27.169Z,2.60
2019-01-06T02:37:55.343Z,2.70
2019-01-06T02:40:29.727Z,2.60
2019-01-06T02:43:14.843Z,2.70
2019-01-06T02:45:43.020Z,2.60
2019-01-06T02:48:11.165Z,2.60
2019-01-06T02:50:54.621Z,2.60
2019-01-06T02:53:25.528Z,2.60
2019-01-06T02:55:53.683Z,2.60
2019-01-06T02:58:28.098Z,2.60
2019-01-06T03:01:12.924Z,2.60
2019-01-06T03:03:41.088Z,2.60
2019-01-06T03:06:26.071Z,2.60
2019-01-06T03:08:54.215Z,2.60
2019-01-06T03:11:25.143Z,2.60
2019-01-06T03:14:05.396Z,2.70
2019-01-06T03:16:48.901Z,2.70
2019-01-06T03:19:34.264Z,2.60
2019-01-06T03:22:19.271Z,2.70
2019-01-06T03:25:04.082Z,2.70
2019-01-06T03:27:32.259Z,2.70
2019-01-06T03:30:00.400Z,2.70
2019-01-06T03:32:45.243Z,2.70
2019-01-06T03:35:29.979Z,2.70
2019-01-06T03:38:16.755Z,2.70
2019-01-06T03:41:01.547Z,2.60
2019-01-06T03:43:35.630Z,2.60
2019-01-06T03:46:13.119Z,2.70
2019-01-06T03:48:56.151Z,2.70
2019-01-06T03:51:39.848Z,2.70
2019-01-06T03:54:14.355Z,2.70
2019-01-06T03:56:59.445Z,2.70
2019-01-06T03:59:27.600Z,2.70
2019-01-06T04:01:55.766Z,2.70
2019-01-06T04:04:30.038Z,2.70
2019-01-06T04:07:04.066Z,2.70
2019-01-06T04:09:40.913Z,2.70
2019-01-06T04:12:14.858Z,2.60
2019-01-06T04:14:49.311Z,2.60
2019-01-06T04:17:35.701Z,2.60
2019-01-06T04:20:10.136Z,2.60
2019-01-06T04:22:44.233Z,2.70
2019-01-06T04:25:15.479Z,2.70
2019-01-06T04:27:43.654Z,2.70
2019-01-06T04:30:27.098Z,2.60
2019-01-06T04:32:58.115Z,2.60
2019-01-06T04:35:42.611Z,2.60
2019-01-06T04:38:11.111Z,2.60
2019-01-06T04:40:42.041Z,2.50
2019-01-06T04:43:10.223Z,2.60
2019-01-06T04:45:54.906Z,2.60
2019-01-06T04:48:41.242Z,2.60
2019-01-06T04:51:12.298Z,2.60
2019-01-06T04:53:43.207Z,2.50
2019-01-06T04:56:11.371Z,2.60
2019-01-06T04:58:48.925Z,2.60
2019-01-06T05:01:17.067Z,2.60
2019-01-06T05:03:45.293Z,2.60
2019-01-06T05:06:19.439Z,2.60
2019-01-06T05:08:47.630Z,2.60
2019-01-06T05:11:33.943Z,2.50
2019-01-06T05:14:18.903Z,2.50
2019-01-06T05:16:55.896Z,2.50
2019-01-06T05:19:40.769Z,2.50
2019-01-06T05:22:11.875Z,2.50
2019-01-06T05:24:56.680Z,2.50
2019-01-06T05:27:24.835Z,2.50
2019-01-06T05:29:59.127Z,2.50
2019-01-06T05:32:30.376Z,2.50
2019-01-06T05:34:58.893Z,2.50
2019-01-06T05:37:33.034Z,2.50
2019-01-06T05:40:03.962Z,2.50
2019-01-06T05:42:38.143Z,2.50
2019-01-06T05:45:06.411Z,2.50
2019-01-06T05:47:46.604Z,2.50
2019-01-06T05:50:30.194Z,2.50
2019-01-06T05:53:07.574Z,2.50
2019-01-06T05:55:35.724Z,2.50
2019-01-06T05:58:16.031Z,2.60
2019-01-06T06:00:52.860Z,2.60
2019-01-06T06:03:23.743Z,2.60
2019-01-06T06:06:01.163Z,2.50
2019-01-06T06:08:41.372Z,2.50
2019-01-06T06:11:24.682Z,2.50
2019-01-06T06:14:04.994Z,2.40
2019-01-06T06:16:36.020Z,2.50
2019-01-06T06:19:16.530Z,2.40
2019-01-06T06:21:44.667Z,2.50
2019-01-06T06:24:29.424Z,2.40
2019-01-06T06:27:14.138Z,2.40
2019-01-06T06:29:45.016Z,2.40
2019-01-06T06:32:29.767Z,2.40
2019-01-06T06:34:57.944Z,2.30
2019-01-06T06:37:31.746Z,2.40
2019-01-06T06:40:16.954Z,2.40
2019-01-06T06:43:03.311Z,2.40
2019-01-06T06:45:31.472Z,2.40
2019-01-06T06:47:59.634Z,2.40
2019-01-06T06:50:37.375Z,2.40
2019-01-06T06:53:22.511Z,2.40
2019-01-06T06:55:53.410Z,2.40
2019-01-06T06:58:36.563Z,2.40
2019-01-06T07:01:20.819Z,2.40
2019-01-06T07:03:54.738Z,2.40
2019-01-06T07:06:41.466Z,2.40
2019-01-06T07:09:26.414Z,2.40
2019-01-06T07:11:54.584Z,2.40
2019-01-06T07:14:39.760Z,2.40
2019-01-06T07:17:47.276Z,2.40
2019-01-06T07:20:30.498Z,2.40
2019-01-06T07:22:58.660Z,2.40
2019-01-06T07:25:26.820Z,2.40
2019-01-06T07:28:10.682Z,2.40
2019-01-06T07:30:41.603Z,2.40
2019-01-06T07:33:15.730Z,2.40
2019-01-06T07:35:46.749Z,2.40
2019-01-06T07:38:17.700Z,2.40
2019-01-06T07:41:02.467Z,2.40
2019-01-06T07:43:36.612Z,2.40
2019-01-06T07:46:04.787Z,2.50
2019-01-06T07:48:38.767Z,2.50
2019-01-06T07:51:06.920Z,2.50
2019-01-06T07:53:40.872Z,2.40
2019-01-06T07:56:09.027Z,2.40
2019-01-06T07:58:37.512Z,2.40
2019-01-06T08:01:05.699Z,2.40
2019-01-06T08:03:40.111Z,2.40
2019-01-06T08:06:11.267Z,2.40
2019-01-06T08:08:55.971Z,2.40
2019-01-06T08:11:24.488Z,2.40
2019-01-06T08:13:52.655Z,2.40
2019-01-06T08:16:26.857Z,2.50
2019-01-06T08:19:13.471Z,2.50
2019-01-06T08:21:48.025Z,2.50
2019-01-06T08:24:16.163Z,2.50
2019-01-06T08:26:47.311Z,2.40
2019-01-06T08:29:33.328Z,2.50
2019-01-06T08:32:18.244Z,2.50
2019-01-06T08:34:58.554Z,2.40
2019-01-06T08:37:43.953Z,2.50
2019-01-06T08:40:21.295Z,2.50
2019-01-06T08:43:06.358Z,2.60
2019-01-06T08:45:51.206Z,2.60
2019-01-06T08:48:35.958Z,2.60
2019-01-06T08:51:15.930Z,2.60
2019-01-06T08:53:46.823Z,2.60
2019-01-06T08:56:17.783Z,2.50
2019-01-06T08:58:48.668Z,2.60
2019-01-06T09:01:16.827Z,2.60
2019-01-06T09:04:02.123Z,2.60
2019-01-06T09:06:36.339Z,2.60
2019-01-06T09:09:25.505Z,2.60
2019-01-06T09:12:12.198Z,2.70
2019-01-06T09:14:40.436Z,2.70
2019-01-06T09:17:11.626Z,2.70
2019-01-06T09:19:56.681Z,2.70
2019-01-06T09:22:41.824Z,2.70
2019-01-06T09:25:28.147Z,2.80
2019-01-06T09:27:56.309Z,2.80
2019-01-06T09:30:27.275Z,2.70
2019-01-06T09:33:13.782Z,2.70
2019-01-06T09:35:58.650Z,2.70
2019-01-06T09:38:38.686Z,2.80
2019-01-06T09:41:21.744Z,2.70
2019-01-06T09:43:52.740Z,2.70
2019-01-06T09:46:36.598Z,2.80
2019-01-06T09:49:21.555Z,2.70
2019-01-06T09:51:55.483Z,2.70
2019-01-06T09:54:23.658Z,2.80
2019-01-06T09:56:54.683Z,2.80
2019-01-06T09:59:28.634Z,2.80
2019-01-06T10:02:13.745Z,2.90
2019-01-06T10:05:00.022Z,2.90
2019-01-06T10:07:31.515Z,2.90
2019-01-06T10:10:05.699Z,2.90
2019-01-06T10:12:36.667Z,2.90
2019-01-06T10:15:15.590Z,2.90
2019-01-06T10:17:47.232Z,2.90
2019-01-06T10:20:32.287Z,2.90
2019-01-06T10:23:12.381Z,2.90
2019-01-06T10:25:40.551Z,2.90
2019-01-06T10:28:27.059Z,2.90
2019-01-06T10:31:12.072Z,3.00
2019-01-06T10:33:52.139Z,3.00
2019-01-06T10:36:32.263Z,3.10
2019-01-06T10:39:00.784Z,3.00
2019-01-06T10:41:34.747Z,3.10
2019-01-06T10:44:19.774Z,3.10
2019-01-06T10:46:53.532Z,3.10
2019-01-06T10:49:34.022Z,3.00
2019-01-06T10:52:19.093Z,3.00
2019-01-06T10:54:50.279Z,3.00
2019-01-06T10:57:33.686Z,3.00
2019-01-06T11:00:07.636Z,3.00
2019-01-06T11:02:52.667Z,3.10
2019-01-06T11:05:32.888Z,3.10
2019-01-06T11:08:13.183Z,3.20
2019-01-06T11:10:44.430Z,3.20
2019-01-06T11:13:31.216Z,3.30
2019-01-06T11:15:59.382Z,3.30
2019-01-06T11:18:27.543Z,3.30
2019-01-06T11:21:01.649Z,3.20
2019-01-06T11:23:39.066Z,3.20
2019-01-06T11:26:19.504Z,3.20
2019-01-06T11:28:47.652Z,3.20
2019-01-06T11:31:21.579Z,3.30
2019-01-06T11:33:55.798Z,3.30
2019-01-06T11:36:25.766Z,3.30
2019-01-06T11:39:10.842Z,3.20
2019-01-06T11:41:44.792Z,3.20
2019-01-06T11:44:14.114Z,3.20
2019-01-06T11:46:42.411Z,3.20
2019-01-06T11:49:19.655Z,3.30
2019-01-06T11:51:47.837Z,3.30
2019-01-06T11:54:15.975Z,3.30
2019-01-06T11:56:53.001Z,3.30
2019-01-06T11:59:30.004Z,3.20
2019-01-06T12:02:15.152Z,3.20
2019-01-06T12:05:00.372Z,3.20
2019-01-06T12:07:37.447Z,3.20
2019-01-06T12:10:08.141Z,3.20
2019-01-06T12:12:45.478Z,3.20
2019-01-06T12:15:28.995Z,3.20
2019-01-06T12:18:03.330Z,3.10
2019-01-06T12:20:46.903Z,3.20
2019-01-06T12:23:17.839Z,3.20
2019-01-06T12:25:46.347Z,3.20
2019-01-06T12:28:23.444Z,3.30
2019-01-06T12:30:51.595Z,3.30
2019-01-06T12:33:32.130Z,3.30
2019-01-06T12:36:03.173Z,3.30
2019-01-06T12:38:31.316Z,3.30
2019-01-06T12:41:08.391Z,3.30
2019-01-06T12:43:36.554Z,3.20
2019-01-06T12:46:17.052Z,3.30
2019-01-06T12:48:51.282Z,3.20
2019-01-06T12:51:19.466Z,3.20
2019-01-06T12:53:56.623Z,3.30
2019-01-06T12:56:33.627Z,3.30
2019-01-06T12:59:18.292Z,3.30
2019-01-06T13:01:58.591Z,3.30
2019-01-06T13:04:42.207Z,3.30
2019-01-06T13:07:10.386Z,3.30
2019-01-06T13:09:41.623Z,3.40
2019-01-06T13:12:10.022Z,3.40
2019-01-06T13:14:38.163Z,3.30
2019-01-06T13:17:12.387Z,3.40
2019-01-06T13:19:57.364Z,3.40
2019-01-06T13:22:42.214Z,3.40
2019-01-06T13:25:10.404Z,3.30
2019-01-06T13:27:38.542Z,3.30
2019-01-06T13:30:25.246Z,3.20
2019-01-06T13:32:56.514Z,3.20
2019-01-06T13:35:24.668Z,3.20
2019-01-06T13:38:09.689Z,3.20
2019-01-06T13:41:02.588Z,3.20
2019-01-06T13:43:24.429Z,3.20
2019-01-06T13:46:01.494Z,3.10
2019-01-06T13:48:44.916Z,3.10
2019-01-06T13:51:29.723Z,3.00
2019-01-06T13:54:10.468Z,3.10
2019-01-06T13:56:44.503Z,3.10
2019-01-06T13:59:15.403Z,3.10
2019-01-06T14:02:00.440Z,3.10
2019-01-06T14:04:46.629Z,3.10
2019-01-06T14:07:29.962Z,3.10
2019-01-06T14:10:10.232Z,3.10
2019-01-06T14:12:47.534Z,3.10
2019-01-06T14:15:15.695Z,3.10
2019-01-06T14:17:46.867Z,3.10
2019-01-06T14:20:20.782Z,3.10
2019-01-06T14:22:54.727Z,3.10
2019-01-06T14:25:25.977Z,3.10
2019-01-06T14:27:54.164Z,3.10
2019-01-06T14:30:39.195Z,3.10
2019-01-06T14:33:10.116Z,3.10
2019-01-06T14:35:38.275Z,3.10
2019-01-06T14:38:21.967Z,3.10
2019-01-06T14:40:56.166Z,3.00
2019-01-06T14:43:36.571Z,3.00
2019-01-06T14:46:22.819Z,3.00
2019-01-06T14:48:51.013Z,2.90
2019-01-06T14:51:37.427Z,2.90
2019-01-06T14:54:22.550Z,2.90
2019-01-06T14:57:06.103Z,2.90
2019-01-06T14:59:37.299Z,2.90
2019-01-06T15:02:05.611Z,2.90
2019-01-06T15:04:34.069Z,2.90
2019-01-06T15:07:04.884Z,2.90
2019-01-06T15:09:39.367Z,3.00
2019-01-06T15:12:10.563Z,2.90
2019-01-06T15:14:56.884Z,2.90
2019-01-06T15:17:37.059Z,2.90
2019-01-06T15:20:23.404Z,2.80
2019-01-06T15:23:08.147Z,2.90
2019-01-06T15:25:36.311Z,2.80
2019-01-06T15:28:07.528Z,2.80
2019-01-06T15:30:44.923Z,2.80
2019-01-06T15:33:31.496Z,2.80
2019-01-06T15:36:16.583Z,2.80
2019-01-06T15:39:02.878Z,2.80
2019-01-06T15:41:33.783Z,2.80
2019-01-06T15:44:17.183Z,2.80
2019-01-06T15:47:00.464Z,2.80
2019-01-06T15:49:28.628Z,2.70
2019-01-06T15:51:56.790Z,2.70
2019-01-06T15:54:24.944Z,2.70
2019-01-06T15:57:05.194Z,2.80
2019-01-06T15:59:33.479Z,2.70
2019-01-06T16:02:01.623Z,2.70
2019-01-06T16:04:48.182Z,2.70
2019-01-06T16:07:22.135Z,2.70
2019-01-06T16:10:05.370Z,2.70
2019-01-06T16:12:39.459Z,2.70
2019-01-06T16:15:07.740Z,2.60
2019-01-06T16:17:47.742Z,2.70
2019-01-06T16:20:18.646Z,2.70
2019-01-06T16:22:52.827Z,2.70
2019-01-06T16:25:24.070Z,2.70
2019-01-06T16:27:58.231Z,2.70
2019-01-06T16:30:26.387Z,2.70
2019-01-06T16:33:09.931Z,2.70
2019-01-06T16:35:40.827Z,2.70
2019-01-06T16:38:08.991Z,2.70
2019-01-06T16:40:49.402Z,2.70
2019-01-06T16:43:26.773Z,2.70
2019-01-06T16:46:11.783Z,2.70
2019-01-06T16:48:56.568Z,2.70
2019-01-06T16:51:24.747Z,2.60
2019-01-06T16:54:09.910Z,2.70
2019-01-06T16:56:56.363Z,2.70
2019-01-06T16:59:39.747Z,2.70
2019-01-06T17:02:24.679Z,2.70
2019-01-06T17:05:05.164Z,2.70
2019-01-06T17:07:50.034Z,2.70
2019-01-06T17:10:32.915Z,2.60
2019-01-06T17:13:17.994Z,2.60
2019-01-06T17:15:48.907Z,2.60
2019-01-06T17:18:17.044Z,2.60
2019-01-06T17:20:54.224Z,2.50
2019-01-06T17:23:39.242Z,2.50
2019-01-06T17:26:22.412Z,2.60
2019-01-06T17:29:07.442Z,2.50
2019-01-06T17:31:50.783Z,2.60
2019-01-06T17:34:18.957Z,2.60
2019-01-06T17:36:50.163Z,2.50
2019-01-06T17:39:18.307Z,2.60
2019-01-06T17:41:52.244Z,2.50
2019-01-06T17:44:26.514Z,2.50
2019-01-06T17:46:54.663Z,2.50
2019-01-06T17:49:39.423Z,2.60
2019-01-06T17:52:07.598Z,2.50
2019-01-06T17:54:52.635Z,2.50
2019-01-06T17:57:23.647Z,2.50
2019-01-06T18:00:10.103Z,2.50
2019-01-06T18:02:38.272Z,2.50
2019-01-06T18:05:23.786Z,2.50
2019-01-06T18:08:08.994Z,2.50
2019-01-06T18:10:37.131Z,2.50
2019-01-06T18:13:08.058Z,2.50
2019-01-06T18:15:39.643Z,2.50
2019-01-06T18:18:07.785Z,2.50
2019-01-06T18:20:44.784Z,2.50
2019-01-06T18:23:29.749Z,2.50
2019-01-06T18:25:58.227Z,2.60
2019-01-06T18:28:26.399Z,2.50
2019-01-06T18:30:57.518Z,2.60
2019-01-06T18:33:25.647Z,2.50
2019-01-06T18:35:53.831Z,2.60
2019-01-06T18:38:24.988Z,2.60
2019-01-06T18:40:53.170Z,2.60
2019-01-06T18:43:21.331Z,2.60
2019-01-06T18:46:06.231Z,2.60
2019-01-06T18:48:40.338Z,2.50
2019-01-06T18:51:20.899Z,2.50
2019-01-06T18:53:49.064Z,2.50
2019-01-06T18:56:20.559Z,2.50
2019-01-06T18:59:07.195Z,2.50
2019-01-06T19:01:35.379Z,2.50
2019-01-06T19:04:06.892Z,2.50
2019-01-06T19:06:38.371Z,2.50
2019-01-06T19:09:25.152Z,2.50
2019-01-06T19:11:53.312Z,2.50
2019-01-06T19:14:24.496Z,2.50
2019-01-06T19:17:04.947Z,2.40
2019-01-06T19:19:39.100Z,2.40
2019-01-06T19:22:10.286Z,2.40
2019-01-06T19:24:41.443Z,2.40
2019-01-06T19:27:18.932Z,2.40
2019-01-06T19:29:47.125Z,2.40
2019-01-06T19:32:32.216Z,2.40
2019-01-06T19:35:09.255Z,2.40
2019-01-06T19:37:52.550Z,2.40
2019-01-06T19:40:38.844Z,2.40
2019-01-06T19:43:15.855Z,2.50
2019-01-06T19:45:47.199Z,2.50
2019-01-06T19:48:30.740Z,2.40
2019-01-06T19:51:08.180Z,2.50
2019-01-06T19:53:36.323Z,2.50
2019-01-06T19:56:13.516Z,2.40
2019-01-06T19:58:47.522Z,2.50
2019-01-06T20:01:27.758Z,2.40
2019-01-06T20:04:07.852Z,2.50
2019-01-06T20:06:48.026Z,2.50
2019-01-06T20:09:34.539Z,2.40
2019-01-06T20:12:02.718Z,2.40
2019-01-06T20:14:43.256Z,2.40
2019-01-06T20:17:11.407Z,2.40
2019-01-06T20:19:42.633Z,2.30
2019-01-06T20:22:11.070Z,2.30
2019-01-06T20:24:39.246Z,2.30
2019-01-06T20:27:24.234Z,2.20
2019-01-06T20:29:58.733Z,2.10
2019-01-06T20:32:29.935Z,2.00
2019-01-06T20:34:58.079Z,1.90
2019-01-06T20:37:26.243Z,1.90
2019-01-06T20:39:57.439Z,1.90
2019-01-06T20:42:25.595Z,1.90
2019-01-06T20:45:10.331Z,2.00
2019-01-06T20:47:55.359Z,1.90
2019-01-06T20:50:29.255Z,2.00
2019-01-06T20:53:00.746Z,2.00
2019-01-06T20:55:45.741Z,2.10
2019-01-06T20:58:16.683Z,2.10
2019-01-06T21:01:01.683Z,2.00
2019-01-06T21:03:38.848Z,2.00
2019-01-06T21:06:24.071Z,2.10
2019-01-06T21:08:52.247Z,2.10
2019-01-06T21:11:20.389Z,2.10
2019-01-06T21:14:05.414Z,2.20
2019-01-06T21:16:50.647Z,2.10
2019-01-06T21:19:35.724Z,2.10
2019-01-06T21:22:03.892Z,2.10
2019-01-06T21:24:34.796Z,2.10
2019-01-06T21:27:19.635Z,2.10
2019-01-06T21:30:04.986Z,2.10
2019-01-06T21:32:42.355Z,2.20
2019-01-06T21:35:26.273Z,2.10
2019-01-06T21:38:00.336Z,2.10
2019-01-06T21:40:37.580Z,2.20
2019-01-06T21:43:22.531Z,2.20
2019-01-06T21:46:05.796Z,2.20
2019-01-06T21:48:50.855Z,2.20
2019-01-06T21:51:19.042Z,2.20
2019-01-06T21:53:53.108Z,2.20
2019-01-06T21:56:38.418Z,2.20
2019-01-06T21:59:09.295Z,2.20
2019-01-06T22:01:46.244Z,2.20
2019-01-06T22:04:31.322Z,2.30
2019-01-06T22:06:59.471Z,2.30
2019-01-06T22:09:27.639Z,2.30
2019-01-06T22:12:07.903Z,2.30
2019-01-06T22:14:54.621Z,2.30
2019-01-06T22:17:22.798Z,2.30
2019-01-06T22:19:50.939Z,2.30
2019-01-06T22:22:22.116Z,2.30
2019-01-06T22:24:50.306Z,2.30
2019-01-06T22:27:27.771Z,2.30
2019-01-06T22:29:55.935Z,2.30
2019-01-06T22:32:24.443Z,2.30
2019-01-06T22:34:58.525Z,2.30
2019-01-06T22:37:39.423Z,2.30
2019-01-06T22:40:24.339Z,2.20
2019-01-06T22:43:01.871Z,2.30
2019-01-06T22:45:36.122Z,2.30
2019-01-06T22:48:16.320Z,2.30
2019-01-06T22:50:44.499Z,2.30
2019-01-06T22:53:21.776Z,2.30
2019-01-06T22:55:53.044Z,2.30
2019-01-06T22:58:21.207Z,2.30
2019-01-06T23:00:52.464Z,2.30
2019-01-06T23:03:39.172Z,2.30
2019-01-06T23:06:25.586Z,2.30
2019-01-06T23:08:59.547Z,2.30
2019-01-06T23:11:30.359Z,2.20
2019-01-06T23:14:07.870Z,2.30
2019-01-06T23:16:45.163Z,2.30
2019-01-06T23:19:22.251Z,2.30
2019-01-06T23:21:50.994Z,2.40
2019-01-06T23:24:19.445Z,2.40
2019-01-06T23:26:50.419Z,2.40
2019-01-06T23:29:27.907Z,2.40
2019-01-06T23:32:13.136Z,2.40
2019-01-06T23:34:41.312Z,2.40
2019-01-06T23:37:09.455Z,2.40
2019-01-06T23:39:54.446Z,2.40
2019-01-06T23:42:22.587Z,2.40
2019-01-06T23:45:05.856Z,2.40
2019-01-06T23:47:34.055Z,2.40
2019-01-06T23:50:05.231Z,2.40
2019-01-06T23:52:39.446Z,2.40
2019-01-06T23:55:24.690Z,2.40
2019-01-06T23:58:09.460Z,2.40
